sensor_id;sensor_type;location;lat;lon;timestamp;P1;durP1;ratioP1;P2;durP2;ratioP2
39728;SDS011;25402;42.004;23.088;2022-09-13T00:00:41;41.63;;;8.85;;
39728;SDS011;25402;42.004;23.088;2022-09-13T00:03:10;32.97;;;7.90;;
39728;SDS011;25402;42.004;23.088;2022-09-13T00:05:38;39.55;;;8.60;;
39728;SDS011;25402;42.004;23.088;2022-09-13T00:08:05;38.83;;;7.90;;
39728;SDS011;25402;42.004;23.088;2022-09-13T00:10:33;44.20;;;8.13;;
39728;SDS011;25402;42.004;23.088;2022-09-13T00:13:02;26.88;;;7.60;;
39728;SDS011;25402;42.004;23.088;2022-09-13T00:15:29;20.60;;;7.30;;
39728;SDS011;25402;42.004;23.088;2022-09-13T00:17:56;24.58;;;7.18;;
39728;SDS011;25402;42.004;23.088;2022-09-13T00:20:24;27.23;;;7.00;;
39728;SDS011;25402;42.004;23.088;2022-09-13T00:22:51;31.40;;;8.73;;
39728;SDS011;25402;42.004;23.088;2022-09-13T00:25:18;46.97;;;10.18;;
39728;SDS011;25402;42.004;23.088;2022-09-13T00:27:45;50.65;;;9.65;;
39728;SDS011;25402;42.004;23.088;2022-09-13T00:30:12;59.90;;;10.63;;
39728;SDS011;25402;42.004;23.088;2022-09-13T00:32:39;39.72;;;8.88;;
39728;SDS011;25402;42.004;23.088;2022-09-13T00:35:07;29.35;;;7.60;;
39728;SDS011;25402;42.004;23.088;2022-09-13T00:37:36;36.15;;;8.50;;
39728;SDS011;25402;42.004;23.088;2022-09-13T00:40:03;13.90;;;5.90;;
39728;SDS011;25402;42.004;23.088;2022-09-13T00:42:31;16.83;;;6.43;;
39728;SDS011;25402;42.004;23.088;2022-09-13T00:44:59;33.13;;;7.50;;
39728;SDS011;25402;42.004;23.088;2022-09-13T00:47:32;30.15;;;7.93;;
39728;SDS011;25402;42.004;23.088;2022-09-13T00:50:05;29.80;;;7.65;;
39728;SDS011;25402;42.004;23.088;2022-09-13T00:52:38;25.45;;;7.85;;
39728;SDS011;25402;42.004;23.088;2022-09-13T00:55:10;37.78;;;8.90;;
39728;SDS011;25402;42.004;23.088;2022-09-13T00:57:46;30.55;;;7.78;;
39728;SDS011;25402;42.004;23.088;2022-09-13T01:00:14;31.55;;;8.68;;
39728;SDS011;25402;42.004;23.088;2022-09-13T01:02:44;27.92;;;8.32;;
39728;SDS011;25402;42.004;23.088;2022-09-13T01:05:15;35.13;;;7.72;;
39728;SDS011;25402;42.004;23.088;2022-09-13T01:07:46;23.25;;;7.10;;
39728;SDS011;25402;42.004;23.088;2022-09-13T01:10:13;31.52;;;7.88;;
39728;SDS011;25402;42.004;23.088;2022-09-13T01:12:42;28.40;;;6.72;;
39728;SDS011;25402;42.004;23.088;2022-09-13T01:15:12;33.25;;;7.95;;
39728;SDS011;25402;42.004;23.088;2022-09-13T01:17:39;31.15;;;8.45;;
39728;SDS011;25402;42.004;23.088;2022-09-13T01:20:09;23.60;;;7.90;;
39728;SDS011;25402;42.004;23.088;2022-09-13T01:22:50;18.80;;;7.40;;
39728;SDS011;25402;42.004;23.088;2022-09-13T01:25:48;16.88;;;7.03;;
39728;SDS011;25402;42.004;23.088;2022-09-13T01:28:41;17.15;;;7.80;;
39728;SDS011;25402;42.004;23.088;2022-09-13T01:31:41;18.13;;;7.25;;
39728;SDS011;25402;42.004;23.088;2022-09-13T01:34:22;18.13;;;7.57;;
39728;SDS011;25402;42.004;23.088;2022-09-13T01:37:03;14.70;;;6.72;;
39728;SDS011;25402;42.004;23.088;2022-09-13T01:39:54;22.42;;;7.18;;
39728;SDS011;25402;42.004;23.088;2022-09-13T01:42:30;78.32;;;9.75;;
39728;SDS011;25402;42.004;23.088;2022-09-13T01:45:11;63.70;;;9.23;;
39728;SDS011;25402;42.004;23.088;2022-09-13T01:47:52;19.33;;;5.95;;
39728;SDS011;25402;42.004;23.088;2022-09-13T01:50:24;34.92;;;6.40;;
39728;SDS011;25402;42.004;23.088;2022-09-13T01:53:00;26.70;;;6.60;;
39728;SDS011;25402;42.004;23.088;2022-09-13T01:55:33;22.13;;;6.88;;
39728;SDS011;25402;42.004;23.088;2022-09-13T01:58:10;55.15;;;8.35;;
39728;SDS011;25402;42.004;23.088;2022-09-13T02:00:43;32.25;;;7.80;;
39728;SDS011;25402;42.004;23.088;2022-09-13T02:03:17;44.88;;;10.13;;
39728;SDS011;25402;42.004;23.088;2022-09-13T02:05:51;18.02;;;6.40;;
39728;SDS011;25402;42.004;23.088;2022-09-13T02:08:22;15.30;;;6.25;;
39728;SDS011;25402;42.004;23.088;2022-09-13T02:10:59;20.58;;;7.35;;
39728;SDS011;25402;42.004;23.088;2022-09-13T02:13:36;22.83;;;8.65;;
39728;SDS011;25402;42.004;23.088;2022-09-13T02:16:07;27.10;;;8.27;;
39728;SDS011;25402;42.004;23.088;2022-09-13T02:18:40;27.63;;;7.82;;
39728;SDS011;25402;42.004;23.088;2022-09-13T02:21:13;22.05;;;7.25;;
39728;SDS011;25402;42.004;23.088;2022-09-13T02:23:44;10.98;;;7.57;;
39728;SDS011;25402;42.004;23.088;2022-09-13T02:26:15;15.90;;;7.18;;
39728;SDS011;25402;42.004;23.088;2022-09-13T02:28:46;12.88;;;7.47;;
39728;SDS011;25402;42.004;23.088;2022-09-13T02:31:17;17.60;;;7.45;;
39728;SDS011;25402;42.004;23.088;2022-09-13T02:33:52;22.83;;;7.28;;
39728;SDS011;25402;42.004;23.088;2022-09-13T02:36:23;14.63;;;6.85;;
39728;SDS011;25402;42.004;23.088;2022-09-13T02:38:55;13.15;;;6.60;;
39728;SDS011;25402;42.004;23.088;2022-09-13T02:41:27;12.57;;;6.90;;
39728;SDS011;25402;42.004;23.088;2022-09-13T02:44:00;15.80;;;7.22;;
39728;SDS011;25402;42.004;23.088;2022-09-13T02:46:37;20.63;;;6.60;;
39728;SDS011;25402;42.004;23.088;2022-09-13T02:49:16;16.10;;;8.00;;
39728;SDS011;25402;42.004;23.088;2022-09-13T02:51:53;13.82;;;7.85;;
39728;SDS011;25402;42.004;23.088;2022-09-13T02:54:24;13.32;;;8.70;;
39728;SDS011;25402;42.004;23.088;2022-09-13T02:56:58;18.38;;;10.32;;
39728;SDS011;25402;42.004;23.088;2022-09-13T03:02:00;16.90;;;6.82;;
39728;SDS011;25402;42.004;23.088;2022-09-13T03:04:32;15.20;;;7.10;;
39728;SDS011;25402;42.004;23.088;2022-09-13T03:07:00;13.55;;;7.18;;
39728;SDS011;25402;42.004;23.088;2022-09-13T03:09:28;13.32;;;7.47;;
39728;SDS011;25402;42.004;23.088;2022-09-13T03:12:02;13.73;;;6.75;;
39728;SDS011;25402;42.004;23.088;2022-09-13T03:14:45;11.35;;;7.00;;
39728;SDS011;25402;42.004;23.088;2022-09-13T03:17:24;8.95;;;6.55;;
39728;SDS011;25402;42.004;23.088;2022-09-13T03:20:09;12.60;;;7.43;;
39728;SDS011;25402;42.004;23.088;2022-09-13T03:25:41;14.93;;;6.97;;
39728;SDS011;25402;42.004;23.088;2022-09-13T03:28:26;15.70;;;8.15;;
39728;SDS011;25402;42.004;23.088;2022-09-13T03:31:05;15.43;;;9.52;;
39728;SDS011;25402;42.004;23.088;2022-09-13T03:33:38;12.73;;;8.20;;
39728;SDS011;25402;42.004;23.088;2022-09-13T03:36:14;11.02;;;7.18;;
39728;SDS011;25402;42.004;23.088;2022-09-13T03:38:51;9.63;;;7.13;;
39728;SDS011;25402;42.004;23.088;2022-09-13T03:41:24;16.52;;;7.25;;
39728;SDS011;25402;42.004;23.088;2022-09-13T03:43:57;26.15;;;6.45;;
39728;SDS011;25402;42.004;23.088;2022-09-13T03:46:28;13.20;;;6.88;;
39728;SDS011;25402;42.004;23.088;2022-09-13T03:48:59;15.90;;;7.03;;
39728;SDS011;25402;42.004;23.088;2022-09-13T03:51:32;10.85;;;6.95;;
39728;SDS011;25402;42.004;23.088;2022-09-13T03:54:01;11.20;;;7.03;;
39728;SDS011;25402;42.004;23.088;2022-09-13T03:56:30;12.00;;;7.63;;
39728;SDS011;25402;42.004;23.088;2022-09-13T03:58:57;20.38;;;7.68;;
39728;SDS011;25402;42.004;23.088;2022-09-13T04:01:24;21.13;;;7.72;;
39728;SDS011;25402;42.004;23.088;2022-09-13T04:03:52;17.17;;;7.55;;
39728;SDS011;25402;42.004;23.088;2022-09-13T04:06:19;28.35;;;14.52;;
39728;SDS011;25402;42.004;23.088;2022-09-13T04:08:48;5.38;;;4.10;;
39728;SDS011;25402;42.004;23.088;2022-09-13T04:11:15;12.50;;;5.07;;
39728;SDS011;25402;42.004;23.088;2022-09-13T04:13:42;28.83;;;7.45;;
39728;SDS011;25402;42.004;23.088;2022-09-13T04:16:09;25.20;;;7.88;;
39728;SDS011;25402;42.004;23.088;2022-09-13T04:18:36;16.65;;;6.32;;
39728;SDS011;25402;42.004;23.088;2022-09-13T04:21:03;9.55;;;6.32;;
39728;SDS011;25402;42.004;23.088;2022-09-13T04:23:30;12.73;;;5.82;;
39728;SDS011;25402;42.004;23.088;2022-09-13T04:26:02;10.48;;;5.85;;
39728;SDS011;25402;42.004;23.088;2022-09-13T04:28:30;12.23;;;5.45;;
39728;SDS011;25402;42.004;23.088;2022-09-13T04:30:57;10.10;;;6.05;;
39728;SDS011;25402;42.004;23.088;2022-09-13T04:33:24;12.73;;;6.13;;
39728;SDS011;25402;42.004;23.088;2022-09-13T04:35:56;18.15;;;8.27;;
39728;SDS011;25402;42.004;23.088;2022-09-13T04:38:23;13.35;;;5.80;;
39728;SDS011;25402;42.004;23.088;2022-09-13T04:40:51;24.33;;;7.05;;
39728;SDS011;25402;42.004;23.088;2022-09-13T04:43:20;27.55;;;11.43;;
39728;SDS011;25402;42.004;23.088;2022-09-13T04:45:47;26.67;;;7.53;;
39728;SDS011;25402;42.004;23.088;2022-09-13T04:48:14;19.50;;;6.90;;
39728;SDS011;25402;42.004;23.088;2022-09-13T04:50:41;21.73;;;11.65;;
39728;SDS011;25402;42.004;23.088;2022-09-13T04:53:09;51.47;;;21.85;;
39728;SDS011;25402;42.004;23.088;2022-09-13T04:55:36;23.15;;;10.77;;
39728;SDS011;25402;42.004;23.088;2022-09-13T04:58:03;15.52;;;7.80;;
39728;SDS011;25402;42.004;23.088;2022-09-13T05:00:32;15.50;;;6.50;;
39728;SDS011;25402;42.004;23.088;2022-09-13T05:02:59;32.25;;;7.50;;
39728;SDS011;25402;42.004;23.088;2022-09-13T05:05:26;14.85;;;5.38;;
39728;SDS011;25402;42.004;23.088;2022-09-13T05:07:55;15.13;;;5.50;;
39728;SDS011;25402;42.004;23.088;2022-09-13T05:10:22;20.02;;;5.03;;
39728;SDS011;25402;42.004;23.088;2022-09-13T05:12:49;12.90;;;5.15;;
39728;SDS011;25402;42.004;23.088;2022-09-13T05:15:16;23.95;;;5.55;;
39728;SDS011;25402;42.004;23.088;2022-09-13T05:17:44;17.42;;;4.72;;
39728;SDS011;25402;42.004;23.088;2022-09-13T05:20:12;15.55;;;4.63;;
39728;SDS011;25402;42.004;23.088;2022-09-13T05:22:40;28.75;;;5.00;;
39728;SDS011;25402;42.004;23.088;2022-09-13T05:25:07;14.77;;;4.82;;
39728;SDS011;25402;42.004;23.088;2022-09-13T05:27:34;16.55;;;5.50;;
39728;SDS011;25402;42.004;23.088;2022-09-13T05:30:02;10.82;;;5.78;;
39728;SDS011;25402;42.004;23.088;2022-09-13T05:32:29;24.42;;;7.47;;
39728;SDS011;25402;42.004;23.088;2022-09-13T05:34:58;13.52;;;6.28;;
39728;SDS011;25402;42.004;23.088;2022-09-13T05:37:25;14.15;;;5.30;;
39728;SDS011;25402;42.004;23.088;2022-09-13T05:39:52;10.90;;;6.07;;
39728;SDS011;25402;42.004;23.088;2022-09-13T05:42:19;8.95;;;6.72;;
39728;SDS011;25402;42.004;23.088;2022-09-13T05:44:46;12.27;;;6.53;;
39728;SDS011;25402;42.004;23.088;2022-09-13T05:47:13;9.18;;;5.88;;
39728;SDS011;25402;42.004;23.088;2022-09-13T05:49:41;14.57;;;5.78;;
39728;SDS011;25402;42.004;23.088;2022-09-13T05:52:09;18.02;;;5.43;;
39728;SDS011;25402;42.004;23.088;2022-09-13T05:54:36;9.63;;;5.05;;
39728;SDS011;25402;42.004;23.088;2022-09-13T05:57:03;15.75;;;4.47;;
39728;SDS011;25402;42.004;23.088;2022-09-13T05:59:33;11.05;;;4.20;;
39728;SDS011;25402;42.004;23.088;2022-09-13T06:02:00;9.52;;;4.30;;
39728;SDS011;25402;42.004;23.088;2022-09-13T06:04:27;16.05;;;4.40;;
39728;SDS011;25402;42.004;23.088;2022-09-13T06:06:54;14.70;;;4.68;;
39728;SDS011;25402;42.004;23.088;2022-09-13T06:09:22;13.63;;;3.70;;
39728;SDS011;25402;42.004;23.088;2022-09-13T06:11:49;10.68;;;4.00;;
39728;SDS011;25402;42.004;23.088;2022-09-13T06:14:17;7.60;;;3.88;;
39728;SDS011;25402;42.004;23.088;2022-09-13T06:16:44;9.68;;;4.00;;
39728;SDS011;25402;42.004;23.088;2022-09-13T06:19:12;8.98;;;4.60;;
39728;SDS011;25402;42.004;23.088;2022-09-13T06:21:40;5.78;;;3.45;;
39728;SDS011;25402;42.004;23.088;2022-09-13T06:24:07;13.65;;;3.97;;
39728;SDS011;25402;42.004;23.088;2022-09-13T06:26:35;11.73;;;3.80;;
39728;SDS011;25402;42.004;23.088;2022-09-13T06:29:02;12.05;;;5.00;;
39728;SDS011;25402;42.004;23.088;2022-09-13T06:31:30;13.15;;;4.75;;
39728;SDS011;25402;42.004;23.088;2022-09-13T06:33:58;15.68;;;4.82;;
39728;SDS011;25402;42.004;23.088;2022-09-13T06:36:28;11.13;;;4.25;;
39728;SDS011;25402;42.004;23.088;2022-09-13T06:38:55;8.80;;;3.88;;
39728;SDS011;25402;42.004;23.088;2022-09-13T06:41:24;8.63;;;4.25;;
39728;SDS011;25402;42.004;23.088;2022-09-13T06:43:54;9.32;;;4.18;;
39728;SDS011;25402;42.004;23.088;2022-09-13T06:46:23;9.05;;;3.80;;
39728;SDS011;25402;42.004;23.088;2022-09-13T06:48:51;9.00;;;4.45;;
39728;SDS011;25402;42.004;23.088;2022-09-13T06:51:19;8.52;;;4.20;;
39728;SDS011;25402;42.004;23.088;2022-09-13T06:53:48;7.45;;;4.80;;
39728;SDS011;25402;42.004;23.088;2022-09-13T06:56:17;9.50;;;4.57;;
39728;SDS011;25402;42.004;23.088;2022-09-13T06:58:47;10.65;;;4.68;;
39728;SDS011;25402;42.004;23.088;2022-09-13T07:01:20;6.80;;;4.80;;
39728;SDS011;25402;42.004;23.088;2022-09-13T07:03:49;9.65;;;4.72;;
39728;SDS011;25402;42.004;23.088;2022-09-13T07:06:18;10.02;;;4.38;;
39728;SDS011;25402;42.004;23.088;2022-09-13T07:08:47;22.00;;;10.50;;
39728;SDS011;25402;42.004;23.088;2022-09-13T07:11:16;12.50;;;4.90;;
39728;SDS011;25402;42.004;23.088;2022-09-13T07:13:46;17.02;;;9.73;;
39728;SDS011;25402;42.004;23.088;2022-09-13T07:16:18;18.08;;;7.00;;
39728;SDS011;25402;42.004;23.088;2022-09-13T07:18:49;24.48;;;5.20;;
39728;SDS011;25402;42.004;23.088;2022-09-13T07:21:18;10.25;;;5.20;;
39728;SDS011;25402;42.004;23.088;2022-09-13T07:23:45;15.48;;;4.38;;
39728;SDS011;25402;42.004;23.088;2022-09-13T07:26:13;8.15;;;4.53;;
39728;SDS011;25402;42.004;23.088;2022-09-13T07:28:41;14.88;;;5.55;;
39728;SDS011;25402;42.004;23.088;2022-09-13T07:31:10;9.90;;;4.55;;
39728;SDS011;25402;42.004;23.088;2022-09-13T07:33:41;14.68;;;4.68;;
39728;SDS011;25402;42.004;23.088;2022-09-13T07:36:10;16.35;;;5.40;;
39728;SDS011;25402;42.004;23.088;2022-09-13T07:38:38;17.33;;;4.50;;
39728;SDS011;25402;42.004;23.088;2022-09-13T07:41:07;13.38;;;5.22;;
39728;SDS011;25402;42.004;23.088;2022-09-13T07:43:37;23.45;;;4.40;;
39728;SDS011;25402;42.004;23.088;2022-09-13T07:46:05;14.95;;;4.50;;
39728;SDS011;25402;42.004;23.088;2022-09-13T07:48:33;7.10;;;3.42;;
39728;SDS011;25402;42.004;23.088;2022-09-13T07:51:04;10.50;;;2.80;;
39728;SDS011;25402;42.004;23.088;2022-09-13T07:53:32;6.88;;;2.90;;
39728;SDS011;25402;42.004;23.088;2022-09-13T07:56:02;4.70;;;2.47;;
39728;SDS011;25402;42.004;23.088;2022-09-13T07:58:30;5.55;;;2.40;;
39728;SDS011;25402;42.004;23.088;2022-09-13T08:00:59;5.35;;;2.22;;
39728;SDS011;25402;42.004;23.088;2022-09-13T08:03:31;11.52;;;2.80;;
39728;SDS011;25402;42.004;23.088;2022-09-13T08:05:58;5.45;;;2.58;;
39728;SDS011;25402;42.004;23.088;2022-09-13T08:08:27;12.93;;;2.75;;
39728;SDS011;25402;42.004;23.088;2022-09-13T08:10:56;12.63;;;2.70;;
39728;SDS011;25402;42.004;23.088;2022-09-13T08:13:23;5.40;;;2.33;;
39728;SDS011;25402;42.004;23.088;2022-09-13T08:15:50;4.10;;;2.40;;
39728;SDS011;25402;42.004;23.088;2022-09-13T08:18:18;7.97;;;2.60;;
39728;SDS011;25402;42.004;23.088;2022-09-13T08:20:45;4.55;;;2.47;;
39728;SDS011;25402;42.004;23.088;2022-09-13T08:23:13;3.17;;;2.40;;
39728;SDS011;25402;42.004;23.088;2022-09-13T08:25:41;4.25;;;2.33;;
39728;SDS011;25402;42.004;23.088;2022-09-13T08:28:09;18.13;;;2.63;;
39728;SDS011;25402;42.004;23.088;2022-09-13T08:30:41;6.55;;;2.40;;
39728;SDS011;25402;42.004;23.088;2022-09-13T08:33:08;7.40;;;2.55;;
39728;SDS011;25402;42.004;23.088;2022-09-13T08:35:37;5.47;;;2.33;;
39728;SDS011;25402;42.004;23.088;2022-09-13T08:38:04;3.65;;;2.30;;
39728;SDS011;25402;42.004;23.088;2022-09-13T08:40:33;11.02;;;2.10;;
39728;SDS011;25402;42.004;23.088;2022-09-13T08:43:09;6.07;;;2.08;;
39728;SDS011;25402;42.004;23.088;2022-09-13T08:45:50;2.35;;;1.85;;
39728;SDS011;25402;42.004;23.088;2022-09-13T08:48:27;4.60;;;1.77;;
39728;SDS011;25402;42.004;23.088;2022-09-13T08:51:00;5.97;;;2.00;;
39728;SDS011;25402;42.004;23.088;2022-09-13T08:53:34;3.40;;;2.10;;
39728;SDS011;25402;42.004;23.088;2022-09-13T08:56:09;8.35;;;2.25;;
39728;SDS011;25402;42.004;23.088;2022-09-13T08:58:45;3.55;;;2.20;;
39728;SDS011;25402;42.004;23.088;2022-09-13T09:01:23;24.08;;;2.30;;
39728;SDS011;25402;42.004;23.088;2022-09-13T09:04:01;7.78;;;2.15;;
39728;SDS011;25402;42.004;23.088;2022-09-13T09:06:38;3.72;;;2.20;;
39728;SDS011;25402;42.004;23.088;2022-09-13T09:09:06;4.78;;;2.05;;
39728;SDS011;25402;42.004;23.088;2022-09-13T09:11:40;2.35;;;1.75;;
39728;SDS011;25402;42.004;23.088;2022-09-13T09:14:14;3.33;;;2.77;;
39728;SDS011;25402;42.004;23.088;2022-09-13T09:16:49;5.40;;;2.00;;
39728;SDS011;25402;42.004;23.088;2022-09-13T09:19:20;5.90;;;2.20;;
39728;SDS011;25402;42.004;23.088;2022-09-13T09:21:54;11.07;;;2.13;;
39728;SDS011;25402;42.004;23.088;2022-09-13T09:24:22;3.40;;;2.10;;
39728;SDS011;25402;42.004;23.088;2022-09-13T09:26:51;6.18;;;2.10;;
39728;SDS011;25402;42.004;23.088;2022-09-13T09:29:25;3.72;;;2.50;;
39728;SDS011;25402;42.004;23.088;2022-09-13T09:32:03;17.13;;;2.75;;
39728;SDS011;25402;42.004;23.088;2022-09-13T09:34:44;6.07;;;2.30;;
39728;SDS011;25402;42.004;23.088;2022-09-13T09:37:18;6.82;;;2.92;;
39728;SDS011;25402;42.004;23.088;2022-09-13T09:39:49;7.22;;;2.60;;
39728;SDS011;25402;42.004;23.088;2022-09-13T09:42:18;9.40;;;3.25;;
39728;SDS011;25402;42.004;23.088;2022-09-13T09:44:52;3.72;;;2.00;;
39728;SDS011;25402;42.004;23.088;2022-09-13T09:49:53;5.50;;;1.90;;
39728;SDS011;25402;42.004;23.088;2022-09-13T09:52:38;9.52;;;2.20;;
39728;SDS011;25402;42.004;23.088;2022-09-13T09:55:22;3.88;;;2.00;;
39728;SDS011;25402;42.004;23.088;2022-09-13T09:57:57;4.72;;;1.80;;
39728;SDS011;25402;42.004;23.088;2022-09-13T10:00:27;13.98;;;2.10;;
39728;SDS011;25402;42.004;23.088;2022-09-13T10:02:56;3.50;;;1.80;;
39728;SDS011;25402;42.004;23.088;2022-09-13T10:05:25;11.00;;;2.17;;
39728;SDS011;25402;42.004;23.088;2022-09-13T10:07:59;9.60;;;2.00;;
39728;SDS011;25402;42.004;23.088;2022-09-13T10:10:38;10.63;;;2.60;;
39728;SDS011;25402;42.004;23.088;2022-09-13T10:13:11;5.60;;;1.98;;
39728;SDS011;25402;42.004;23.088;2022-09-13T10:15:52;11.10;;;1.92;;
39728;SDS011;25402;42.004;23.088;2022-09-13T10:18:20;9.07;;;2.15;;
39728;SDS011;25402;42.004;23.088;2022-09-13T10:20:58;6.60;;;1.83;;
39728;SDS011;25402;42.004;23.088;2022-09-13T10:23:27;4.75;;;1.60;;
39728;SDS011;25402;42.004;23.088;2022-09-13T10:25:55;3.70;;;1.80;;
39728;SDS011;25402;42.004;23.088;2022-09-13T10:28:27;4.65;;;2.00;;
39728;SDS011;25402;42.004;23.088;2022-09-13T10:30:58;7.32;;;2.08;;
39728;SDS011;25402;42.004;23.088;2022-09-13T10:33:29;7.70;;;2.30;;
39728;SDS011;25402;42.004;23.088;2022-09-13T10:35:59;6.28;;;2.10;;
39728;SDS011;25402;42.004;23.088;2022-09-13T10:38:30;13.50;;;2.63;;
39728;SDS011;25402;42.004;23.088;2022-09-13T10:41:00;2.42;;;1.67;;
39728;SDS011;25402;42.004;23.088;2022-09-13T10:43:30;12.00;;;1.80;;
39728;SDS011;25402;42.004;23.088;2022-09-13T10:46:00;3.78;;;1.52;;
39728;SDS011;25402;42.004;23.088;2022-09-13T10:48:30;8.32;;;1.45;;
39728;SDS011;25402;42.004;23.088;2022-09-13T10:51:17;1.77;;;1.40;;
39728;SDS011;25402;42.004;23.088;2022-09-13T10:54:06;7.60;;;1.80;;
39728;SDS011;25402;42.004;23.088;2022-09-13T10:56:48;1.85;;;1.50;;
39728;SDS011;25402;42.004;23.088;2022-09-13T10:59:18;12.95;;;1.73;;
39728;SDS011;25402;42.004;23.088;2022-09-13T11:01:55;1.98;;;1.33;;
39728;SDS011;25402;42.004;23.088;2022-09-13T11:04:54;6.72;;;1.70;;
39728;SDS011;25402;42.004;23.088;2022-09-13T11:07:35;2.90;;;1.65;;
39728;SDS011;25402;42.004;23.088;2022-09-13T11:10:19;1.92;;;1.60;;
39728;SDS011;25402;42.004;23.088;2022-09-13T11:12:55;6.57;;;1.83;;
39728;SDS011;25402;42.004;23.088;2022-09-13T11:15:34;2.42;;;1.63;;
39728;SDS011;25402;42.004;23.088;2022-09-13T11:21:09;9.60;;;1.60;;
39728;SDS011;25402;42.004;23.088;2022-09-13T11:23:53;2.85;;;1.50;;
39728;SDS011;25402;42.004;23.088;2022-09-13T11:26:41;5.90;;;1.85;;
39728;SDS011;25402;42.004;23.088;2022-09-13T11:29:25;7.20;;;1.70;;
39728;SDS011;25402;42.004;23.088;2022-09-13T11:32:06;2.00;;;1.63;;
39728;SDS011;25402;42.004;23.088;2022-09-13T11:34:44;3.42;;;1.55;;
39728;SDS011;25402;42.004;23.088;2022-09-13T11:37:24;5.38;;;2.00;;
39728;SDS011;25402;42.004;23.088;2022-09-13T11:40:14;5.32;;;1.75;;
39728;SDS011;25402;42.004;23.088;2022-09-13T11:43:04;4.30;;;1.70;;
39728;SDS011;25402;42.004;23.088;2022-09-13T11:45:43;3.03;;;1.60;;
39728;SDS011;25402;42.004;23.088;2022-09-13T11:48:24;6.53;;;1.60;;
39728;SDS011;25402;42.004;23.088;2022-09-13T11:51:09;1.60;;;1.30;;
39728;SDS011;25402;42.004;23.088;2022-09-13T11:53:50;1.65;;;1.33;;
39728;SDS011;25402;42.004;23.088;2022-09-13T11:56:28;6.38;;;1.70;;
39728;SDS011;25402;42.004;23.088;2022-09-13T12:01:35;7.18;;;2.85;;
39728;SDS011;25402;42.004;23.088;2022-09-13T12:04:08;8.90;;;2.40;;
39728;SDS011;25402;42.004;23.088;2022-09-13T12:06:47;2.03;;;1.60;;
39728;SDS011;25402;42.004;23.088;2022-09-13T12:09:21;2.67;;;2.13;;
39728;SDS011;25402;42.004;23.088;2022-09-13T12:11:54;2.67;;;2.13;;
39728;SDS011;25402;42.004;23.088;2022-09-13T12:14:29;2.35;;;1.63;;
39728;SDS011;25402;42.004;23.088;2022-09-13T12:17:05;2.25;;;1.50;;
39728;SDS011;25402;42.004;23.088;2022-09-13T12:19:45;2.17;;;1.42;;
39728;SDS011;25402;42.004;23.088;2022-09-13T12:22:20;3.10;;;1.63;;
39728;SDS011;25402;42.004;23.088;2022-09-13T12:24:50;14.55;;;1.90;;
39728;SDS011;25402;42.004;23.088;2022-09-13T12:27:22;4.30;;;1.70;;
39728;SDS011;25402;42.004;23.088;2022-09-13T12:29:55;7.00;;;1.80;;
39728;SDS011;25402;42.004;23.088;2022-09-13T12:32:27;2.53;;;1.50;;
39728;SDS011;25402;42.004;23.088;2022-09-13T12:34:56;4.43;;;1.70;;
39728;SDS011;25402;42.004;23.088;2022-09-13T12:37:37;7.53;;;1.77;;
39728;SDS011;25402;42.004;23.088;2022-09-13T12:40:26;1.45;;;1.30;;
39728;SDS011;25402;42.004;23.088;2022-09-13T12:46:17;1.52;;;1.33;;
39728;SDS011;25402;42.004;23.088;2022-09-13T12:51:58;5.57;;;1.65;;
39728;SDS011;25402;42.004;23.088;2022-09-13T12:54:41;10.43;;;1.65;;
39728;SDS011;25402;42.004;23.088;2022-09-13T12:57:26;2.95;;;1.63;;
39728;SDS011;25402;42.004;23.088;2022-09-13T13:00:09;1.75;;;1.40;;
39728;SDS011;25402;42.004;23.088;2022-09-13T13:02:44;4.32;;;1.80;;
39728;SDS011;25402;42.004;23.088;2022-09-13T13:05:23;8.48;;;1.67;;
39728;SDS011;25402;42.004;23.088;2022-09-13T13:07:53;5.25;;;1.30;;
39728;SDS011;25402;42.004;23.088;2022-09-13T13:10:28;2.30;;;1.52;;
39728;SDS011;25402;42.004;23.088;2022-09-13T13:13:09;4.03;;;1.70;;
39728;SDS011;25402;42.004;23.088;2022-09-13T13:15:55;8.43;;;1.50;;
39728;SDS011;25402;42.004;23.088;2022-09-13T13:18:27;1.80;;;1.42;;
39728;SDS011;25402;42.004;23.088;2022-09-13T13:21:04;1.25;;;1.15;;
39728;SDS011;25402;42.004;23.088;2022-09-13T13:26:50;2.67;;;1.40;;
39728;SDS011;25402;42.004;23.088;2022-09-13T13:29:19;7.85;;;1.65;;
39728;SDS011;25402;42.004;23.088;2022-09-13T13:32:05;5.45;;;1.88;;
39728;SDS011;25402;42.004;23.088;2022-09-13T13:34:38;6.60;;;1.80;;
39728;SDS011;25402;42.004;23.088;2022-09-13T13:40:09;4.43;;;1.58;;
39728;SDS011;25402;42.004;23.088;2022-09-13T13:42:39;5.50;;;1.55;;
39728;SDS011;25402;42.004;23.088;2022-09-13T13:45:20;4.35;;;1.45;;
39728;SDS011;25402;42.004;23.088;2022-09-13T13:47:54;5.82;;;1.98;;
39728;SDS011;25402;42.004;23.088;2022-09-13T13:50:32;4.15;;;1.30;;
39728;SDS011;25402;42.004;23.088;2022-09-13T13:53:16;3.45;;;1.33;;
39728;SDS011;25402;42.004;23.088;2022-09-13T13:55:47;1.88;;;1.38;;
39728;SDS011;25402;42.004;23.088;2022-09-13T13:58:25;5.85;;;1.60;;
39728;SDS011;25402;42.004;23.088;2022-09-13T14:00:55;5.43;;;1.73;;
39728;SDS011;25402;42.004;23.088;2022-09-13T14:03:33;2.15;;;1.48;;
39728;SDS011;25402;42.004;23.088;2022-09-13T14:06:16;8.15;;;1.98;;
39728;SDS011;25402;42.004;23.088;2022-09-13T14:08:57;4.72;;;1.60;;
39728;SDS011;25402;42.004;23.088;2022-09-13T14:11:42;3.92;;;1.58;;
39728;SDS011;25402;42.004;23.088;2022-09-13T14:14:30;6.60;;;2.20;;
39728;SDS011;25402;42.004;23.088;2022-09-13T14:17:24;6.32;;;1.88;;
39728;SDS011;25402;42.004;23.088;2022-09-13T14:20:11;3.38;;;1.77;;
39728;SDS011;25402;42.004;23.088;2022-09-13T14:22:41;4.93;;;1.85;;
39728;SDS011;25402;42.004;23.088;2022-09-13T14:25:12;2.03;;;1.50;;
39728;SDS011;25402;42.004;23.088;2022-09-13T14:27:47;3.20;;;1.45;;
39728;SDS011;25402;42.004;23.088;2022-09-13T14:30:18;6.38;;;1.85;;
39728;SDS011;25402;42.004;23.088;2022-09-13T14:32:48;8.45;;;1.60;;
39728;SDS011;25402;42.004;23.088;2022-09-13T14:35:24;7.90;;;1.85;;
39728;SDS011;25402;42.004;23.088;2022-09-13T14:37:53;13.32;;;1.77;;
39728;SDS011;25402;42.004;23.088;2022-09-13T14:40:22;3.15;;;1.70;;
39728;SDS011;25402;42.004;23.088;2022-09-13T14:42:52;5.93;;;1.65;;
39728;SDS011;25402;42.004;23.088;2022-09-13T14:45:22;4.00;;;1.80;;
39728;SDS011;25402;42.004;23.088;2022-09-13T14:47:53;3.53;;;2.03;;
39728;SDS011;25402;42.004;23.088;2022-09-13T14:50:27;3.15;;;1.63;;
39728;SDS011;25402;42.004;23.088;2022-09-13T14:52:58;3.03;;;1.80;;
39728;SDS011;25402;42.004;23.088;2022-09-13T14:55:29;8.55;;;1.60;;
39728;SDS011;25402;42.004;23.088;2022-09-13T14:57:59;4.20;;;1.80;;
39728;SDS011;25402;42.004;23.088;2022-09-13T15:00:30;4.10;;;1.90;;
39728;SDS011;25402;42.004;23.088;2022-09-13T15:03:03;5.13;;;1.77;;
39728;SDS011;25402;42.004;23.088;2022-09-13T15:05:37;2.22;;;1.40;;
39728;SDS011;25402;42.004;23.088;2022-09-13T15:11:06;3.70;;;1.80;;
39728;SDS011;25402;42.004;23.088;2022-09-13T15:13:39;12.90;;;2.17;;
39728;SDS011;25402;42.004;23.088;2022-09-13T15:16:24;4.22;;;1.95;;
39728;SDS011;25402;42.004;23.088;2022-09-13T15:22:03;6.47;;;2.05;;
39728;SDS011;25402;42.004;23.088;2022-09-13T15:24:37;9.65;;;2.47;;
39728;SDS011;25402;42.004;23.088;2022-09-13T15:27:15;5.50;;;2.15;;
39728;SDS011;25402;42.004;23.088;2022-09-13T15:29:48;6.05;;;2.00;;
39728;SDS011;25402;42.004;23.088;2022-09-13T15:32:23;12.50;;;2.05;;